PWSweather.com
Personal Weather Stations
Station Observations
JOE4SPEED
Jupiter, Fl, Jupiter, FL 33458

Jupiter, FlJupiter, FL 33458

Lat: 26.9373, Lon: -80.1101

Elevation: 12

Station Type: Davis VP 2

http://www.joe4speed.com/wxindex.php

High Low Average
Temperature 82.7°F28.2°F 64.0°F17.8°F 74.1°F23.4°F
Dew Point 68.0°F20.0°F 59.7°F15.4°F 64.7°F18.2°F
Winds 9.8 mph WNW15.8 mph WNW Calm Calm 4.5 mph 7.2 mph
Wind Gusts 16.0 mph25.7 mph -- 7.5 mph12.1 mph
Humidity 87% 58% 73%
Pressure 29.94 in1013.90 in 29.86 in1011.20 in -
Precipitation 0.00 in0.00 in - -
Hour Temp Dew Point Humidity Winds Wind Gusts Pressure Precip Precip Rate Daily Precip Total
12:00 AM 75.8°F24.3°C 65.7°F18.7°C 71% 3.8 mph NNW6.1 kmh NNW 9.0 mph14.5 kmh 29.89 in1012.2 mb 0.00 in0.0 mm 0.00 in/hr0.0 mm/hr 0.00 in0.0 mm
12:10 AM 75.8°F24.3°C 65.7°F18.7°C 71% 4.7 mph N7.6 kmh N 7.0 mph11.3 kmh 29.89 in1012.2 mb 0.00 in0.0 mm 0.00 in/hr0.0 mm/hr 0.00 in0.0 mm
12:20 AM 75.8°F24.3°C 66.1°F18.9°C 72% 2.7 mph NNE4.3 kmh NNE 7.0 mph11.3 kmh 29.89 in1012.2 mb 0.00 in0.0 mm 0.00 in/hr0.0 mm/hr 0.00 in0.0 mm
12:30 AM 75.7°F24.3°C 65.6°F18.7°C 71% 4.3 mph NNW6.9 kmh NNW 6.0 mph9.7 kmh 29.89 in1012.2 mb 0.00 in0.0 mm 0.00 in/hr0.0 mm/hr 0.00 in0.0 mm
12:40 AM 75.6°F24.2°C 65.5°F18.6°C 71% 5.7 mph N9.2 kmh N 7.0 mph11.3 kmh 29.89 in1012.2 mb 0.00 in0.0 mm 0.00 in/hr0.0 mm/hr 0.00 in0.0 mm
12:50 AM 75.6°F24.2°C 65.5°F18.6°C 71% 4.3 mph NNW6.9 kmh NNW 6.0 mph9.7 kmh 29.89 in1012.2 mb 0.00 in0.0 mm 0.00 in/hr0.0 mm/hr 0.00 in0.0 mm
01:00 AM 75.4°F24.1°C 65.3°F18.5°C 71% 4.0 mph NNW6.4 kmh NNW 7.0 mph11.3 kmh 29.89 in1012.2 mb 0.00 in0.0 mm 0.00 in/hr0.0 mm/hr 0.00 in0.0 mm
01:10 AM 75.3°F24.1°C 65.2°F18.4°C 71% 4.9 mph NNE7.9 kmh NNE 10.0 mph16.1 kmh 29.88 in1011.9 mb 0.00 in0.0 mm 0.00 in/hr0.0 mm/hr 0.00 in0.0 mm
01:20 AM 75.3°F24.1°C 65.2°F18.4°C 71% 3.9 mph N6.3 kmh N 9.0 mph14.5 kmh 29.88 in1011.9 mb 0.00 in0.0 mm 0.00 in/hr0.0 mm/hr 0.00 in0.0 mm
01:30 AM 75.2°F24.0°C 65.1°F18.4°C 71% 4.2 mph N6.8 kmh N 8.0 mph12.9 kmh 29.88 in1011.9 mb 0.00 in0.0 mm 0.00 in/hr0.0 mm/hr 0.00 in0.0 mm
01:40 AM 75.0°F23.9°C 64.9°F18.3°C 71% 4.2 mph NNW6.8 kmh NNW 7.0 mph11.3 kmh 29.88 in1011.9 mb 0.00 in0.0 mm 0.00 in/hr0.0 mm/hr 0.00 in0.0 mm
01:50 AM 74.4°F23.6°C 65.2°F18.4°C 73% 2.1 mph NW3.4 kmh NW 4.0 mph6.4 kmh 29.88 in1011.9 mb 0.00 in0.0 mm 0.00 in/hr0.0 mm/hr 0.00 in0.0 mm
02:00 AM 73.5°F23.1°C 64.7°F18.2°C 74% 1.7 mph NW2.7 kmh NW 2.0 mph3.2 kmh 29.88 in1011.9 mb 0.00 in0.0 mm 0.00 in/hr0.0 mm/hr 0.00 in0.0 mm
02:10 AM 72.9°F22.7°C 64.5°F18.1°C 75% 1.9 mph NW3.1 kmh NW 4.0 mph6.4 kmh 29.88 in1011.9 mb 0.00 in0.0 mm 0.00 in/hr0.0 mm/hr 0.00 in0.0 mm
02:20 AM 72.6°F22.6°C 64.6°F18.1°C 76% 2.2 mph NW3.5 kmh NW 4.0 mph6.4 kmh 29.88 in1011.9 mb 0.00 in0.0 mm 0.00 in/hr0.0 mm/hr 0.00 in0.0 mm
02:30 AM 72.4°F22.4°C 64.4°F18.0°C 76% 2.0 mph NW3.2 kmh NW 5.0 mph8.0 kmh 29.87 in1011.5 mb 0.00 in0.0 mm 0.00 in/hr0.0 mm/hr 0.00 in0.0 mm
02:40 AM 72.4°F22.4°C 64.0°F17.8°C 75% 3.8 mph N6.1 kmh N 5.0 mph8.0 kmh 29.87 in1011.5 mb 0.00 in0.0 mm 0.00 in/hr0.0 mm/hr 0.00 in0.0 mm
02:50 AM 72.8°F22.7°C 64.0°F17.8°C 74% 4.1 mph NNE6.6 kmh NNE 7.0 mph11.3 kmh 29.87 in1011.5 mb 0.00 in0.0 mm 0.00 in/hr0.0 mm/hr 0.00 in0.0 mm
03:00 AM 73.3°F22.9°C 63.7°F17.6°C 72% 5.0 mph N8.0 kmh N 7.0 mph11.3 kmh 29.87 in1011.5 mb 0.00 in0.0 mm 0.00 in/hr0.0 mm/hr 0.00 in0.0 mm
03:10 AM 73.9°F23.3°C 63.9°F17.7°C 71% 3.2 mph N5.1 kmh N 6.0 mph9.7 kmh 29.86 in1011.2 mb 0.00 in0.0 mm 0.00 in/hr0.0 mm/hr 0.00 in0.0 mm
03:20 AM 74.0°F23.3°C 63.6°F17.6°C 70% 3.6 mph NNE5.8 kmh NNE 8.0 mph12.9 kmh 29.86 in1011.2 mb 0.00 in0.0 mm 0.00 in/hr0.0 mm/hr 0.00 in0.0 mm
03:30 AM 74.1°F23.4°C 63.7°F17.6°C 70% 4.1 mph NNE6.6 kmh NNE 6.0 mph9.7 kmh 29.87 in1011.5 mb 0.00 in0.0 mm 0.00 in/hr0.0 mm/hr 0.00 in0.0 mm
03:40 AM 74.0°F23.3°C 63.6°F17.6°C 70% 2.6 mph N4.2 kmh N 3.0 mph4.8 kmh 29.86 in1011.2 mb 0.00 in0.0 mm 0.00 in/hr0.0 mm/hr 0.00 in0.0 mm
03:50 AM 73.9°F23.3°C 63.5°F17.5°C 70% 3.5 mph NNW5.6 kmh NNW 7.0 mph11.3 kmh 29.86 in1011.2 mb 0.00 in0.0 mm 0.00 in/hr0.0 mm/hr 0.00 in0.0 mm
04:00 AM 73.7°F23.2°C 62.9°F17.2°C 69% 3.9 mph N6.3 kmh N 5.0 mph8.0 kmh 29.86 in1011.2 mb 0.00 in0.0 mm 0.00 in/hr0.0 mm/hr 0.00 in0.0 mm
04:10 AM 73.7°F23.2°C 62.9°F17.2°C 69% 3.8 mph N6.1 kmh N 5.0 mph8.0 kmh 29.86 in1011.2 mb 0.00 in0.0 mm 0.00 in/hr0.0 mm/hr 0.00 in0.0 mm
04:20 AM 73.4°F23.0°C 62.6°F17.0°C 69% 3.2 mph NNW5.1 kmh NNW 6.0 mph9.7 kmh 29.86 in1011.2 mb 0.00 in0.0 mm 0.00 in/hr0.0 mm/hr 0.00 in0.0 mm
04:30 AM 73.3°F22.9°C 62.5°F16.9°C 69% 2.5 mph N4.0 kmh N 4.0 mph6.4 kmh 29.86 in1011.2 mb 0.00 in0.0 mm 0.00 in/hr0.0 mm/hr 0.00 in0.0 mm
04:40 AM 73.1°F22.8°C 62.7°F17.1°C 70% 2.6 mph N4.2 kmh N 5.0 mph8.0 kmh 29.86 in1011.2 mb 0.00 in0.0 mm 0.00 in/hr0.0 mm/hr 0.00 in0.0 mm
04:50 AM 72.7°F22.6°C 62.4°F16.9°C 70% 2.9 mph NW4.7 kmh NW 5.0 mph8.0 kmh 29.86 in1011.2 mb 0.00 in0.0 mm 0.00 in/hr0.0 mm/hr 0.00 in0.0 mm
05:00 AM 72.2°F22.3°C 62.6°F17.0°C 72% 0.7 mph NW1.1 kmh NW 2.0 mph3.2 kmh 29.86 in1011.2 mb 0.00 in0.0 mm 0.00 in/hr0.0 mm/hr 0.00 in0.0 mm
05:10 AM 71.1°F21.7°C 62.4°F16.9°C 74% 0.6 mph NW1.0 kmh NW 1.0 mph1.6 kmh 29.86 in1011.2 mb 0.00 in0.0 mm 0.00 in/hr0.0 mm/hr 0.00 in0.0 mm
05:20 AM 69.9°F21.1°C 62.4°F16.9°C 77% 0.1 mph NW0.2 kmh NW 1.0 mph1.6 kmh 29.86 in1011.2 mb 0.00 in0.0 mm 0.00 in/hr0.0 mm/hr 0.00 in0.0 mm
05:30 AM 68.9°F20.5°C 62.1°F16.7°C 79% 3.3 mph NW5.3 kmh NW 4.0 mph6.4 kmh 29.87 in1011.5 mb 0.00 in0.0 mm 0.00 in/hr0.0 mm/hr 0.00 in0.0 mm
05:50 AM 67.5°F19.7°C 61.5°F16.4°C 81% 0.9 mph NW1.4 kmh NW 2.0 mph3.2 kmh 29.87 in1011.5 mb 0.00 in0.0 mm 0.00 in/hr0.0 mm/hr 0.00 in0.0 mm
06:00 AM 67.0°F19.4°C 61.3°F16.3°C 82% 1.9 mph NW3.1 kmh NW 5.0 mph8.0 kmh 29.88 in1011.9 mb 0.00 in0.0 mm 0.00 in/hr0.0 mm/hr 0.00 in0.0 mm
06:10 AM 66.4°F19.1°C 61.0°F16.1°C 83% 2.3 mph NW3.7 kmh NW 4.0 mph6.4 kmh 29.88 in1011.9 mb 0.00 in0.0 mm 0.00 in/hr0.0 mm/hr 0.00 in0.0 mm
06:20 AM 65.7°F18.7°C 60.8°F16.0°C 84% 1.7 mph NW2.7 kmh NW 5.0 mph8.0 kmh 29.88 in1011.9 mb 0.00 in0.0 mm 0.00 in/hr0.0 mm/hr 0.00 in0.0 mm
06:30 AM 65.2°F18.4°C 60.2°F15.7°C 84% 1.1 mph NW1.8 kmh NW 4.0 mph6.4 kmh 29.89 in1012.2 mb 0.00 in0.0 mm 0.00 in/hr0.0 mm/hr 0.00 in0.0 mm
06:40 AM 64.8°F18.2°C 60.2°F15.7°C 85% 1.0 mph NW1.6 kmh NW 2.0 mph3.2 kmh 29.89 in1012.2 mb 0.00 in0.0 mm 0.00 in/hr0.0 mm/hr 0.00 in0.0 mm
06:50 AM 64.5°F18.1°C 59.9°F15.5°C 85% 0.9 mph NW1.4 kmh NW 4.0 mph6.4 kmh 29.89 in1012.2 mb 0.00 in0.0 mm 0.00 in/hr0.0 mm/hr 0.00 in0.0 mm
07:00 AM 64.3°F17.9°C 60.0°F15.6°C 86% 2.5 mph NW4.0 kmh NW 5.0 mph8.0 kmh 29.89 in1012.2 mb 0.00 in0.0 mm 0.00 in/hr0.0 mm/hr 0.00 in0.0 mm
07:10 AM 64.1°F17.8°C 59.8°F15.4°C 86% 1.2 mph NW1.9 kmh NW 5.0 mph8.0 kmh 29.89 in1012.2 mb 0.00 in0.0 mm 0.00 in/hr0.0 mm/hr 0.00 in0.0 mm
07:20 AM 64.0°F17.8°C 59.7°F15.4°C 86% 2.4 mph NW3.9 kmh NW 5.0 mph8.0 kmh 29.90 in1012.5 mb 0.00 in0.0 mm 0.00 in/hr0.0 mm/hr 0.00 in0.0 mm
07:30 AM 64.0°F17.8°C 60.1°F15.6°C 87% 4.5 mph NW7.2 kmh NW 7.0 mph11.3 kmh 29.90 in1012.5 mb 0.00 in0.0 mm 0.00 in/hr0.0 mm/hr 0.00 in0.0 mm
07:40 AM 64.0°F17.8°C 60.1°F15.6°C 87% 1.3 mph NW2.1 kmh NW 2.0 mph3.2 kmh 29.90 in1012.5 mb 0.00 in0.0 mm 0.00 in/hr0.0 mm/hr 0.00 in0.0 mm
07:50 AM 64.0°F17.8°C 60.1°F15.6°C 87% 2.3 mph NW3.7 kmh NW 5.0 mph8.0 kmh 29.91 in1012.9 mb 0.00 in0.0 mm 0.00 in/hr0.0 mm/hr 0.00 in0.0 mm
08:00 AM 64.1°F17.8°C 60.2°F15.7°C 87% 4.5 mph NW7.2 kmh NW 6.0 mph9.7 kmh 29.91 in1012.9 mb 0.00 in0.0 mm 0.00 in/hr0.0 mm/hr 0.00 in0.0 mm
08:10 AM 64.5°F18.1°C 60.5°F15.8°C 87% 4.2 mph NW6.8 kmh NW 8.0 mph12.9 kmh 29.91 in1012.9 mb 0.00 in0.0 mm 0.00 in/hr0.0 mm/hr 0.00 in0.0 mm
08:20 AM 65.3°F18.5°C 61.0°F16.1°C 86% 4.9 mph NW7.9 kmh NW 7.0 mph11.3 kmh 29.92 in1013.2 mb 0.00 in0.0 mm 0.00 in/hr0.0 mm/hr 0.00 in0.0 mm
08:30 AM 65.9°F18.8°C 61.2°F16.2°C 85% 5.6 mph NW9.0 kmh NW 9.0 mph14.5 kmh 29.92 in1013.2 mb 0.00 in0.0 mm 0.00 in/hr0.0 mm/hr 0.00 in0.0 mm
08:40 AM 66.6°F19.2°C 61.6°F16.4°C 84% 5.1 mph NW8.2 kmh NW 11.0 mph17.7 kmh 29.92 in1013.2 mb 0.00 in0.0 mm 0.00 in/hr0.0 mm/hr 0.00 in0.0 mm
08:50 AM 67.4°F19.7°C 62.1°F16.7°C 83% 5.1 mph WNW8.2 kmh WNW 6.0 mph9.7 kmh 29.93 in1013.5 mb 0.00 in0.0 mm 0.00 in/hr0.0 mm/hr 0.00 in0.0 mm
09:00 AM 68.1°F20.1°C 62.4°F16.9°C 82% 6.0 mph NW9.7 kmh NW 9.0 mph14.5 kmh 29.93 in1013.5 mb 0.00 in0.0 mm 0.00 in/hr0.0 mm/hr 0.00 in0.0 mm
09:10 AM 69.2°F20.7°C 63.1°F17.3°C 81% 5.1 mph NW8.2 kmh NW 7.0 mph11.3 kmh 29.93 in1013.5 mb 0.00 in0.0 mm 0.00 in/hr0.0 mm/hr 0.00 in0.0 mm
09:20 AM 70.1°F21.2°C 63.6°F17.6°C 80% 6.0 mph NNW9.7 kmh NNW 8.0 mph12.9 kmh 29.93 in1013.5 mb 0.00 in0.0 mm 0.00 in/hr0.0 mm/hr 0.00 in0.0 mm
09:30 AM 70.6°F21.4°C 63.8°F17.7°C 79% 5.6 mph NW9.0 kmh NW 12.0 mph19.3 kmh 29.93 in1013.5 mb 0.00 in0.0 mm 0.00 in/hr0.0 mm/hr 0.00 in0.0 mm
09:40 AM 71.3°F21.8°C 64.1°F17.8°C 78% 5.4 mph NW8.7 kmh NW 9.0 mph14.5 kmh 29.93 in1013.5 mb 0.00 in0.0 mm 0.00 in/hr0.0 mm/hr 0.00 in0.0 mm
09:50 AM 72.4°F22.4°C 64.7°F18.2°C 77% 4.1 mph NW6.6 kmh NW 9.0 mph14.5 kmh 29.93 in1013.5 mb 0.00 in0.0 mm 0.00 in/hr0.0 mm/hr 0.00 in0.0 mm
10:00 AM 73.7°F23.2°C 64.9°F18.3°C 74% 5.0 mph NW8.0 kmh NW 7.0 mph11.3 kmh 29.93 in1013.5 mb 0.00 in0.0 mm 0.00 in/hr0.0 mm/hr 0.00 in0.0 mm
10:10 AM 74.5°F23.6°C 65.3°F18.5°C 73% 6.7 mph NW10.8 kmh NW 9.0 mph14.5 kmh 29.93 in1013.5 mb 0.00 in0.0 mm 0.00 in/hr0.0 mm/hr 0.00 in0.0 mm
10:20 AM 75.7°F24.3°C 65.6°F18.7°C 71% 7.1 mph NW11.4 kmh NW 13.0 mph20.9 kmh 29.93 in1013.5 mb 0.00 in0.0 mm 0.00 in/hr0.0 mm/hr 0.00 in0.0 mm
10:30 AM 76.7°F24.8°C 66.2°F19.0°C 70% 6.6 mph WNW10.6 kmh WNW 9.0 mph14.5 kmh 29.93 in1013.5 mb 0.00 in0.0 mm 0.00 in/hr0.0 mm/hr 0.00 in0.0 mm
10:40 AM 77.5°F25.3°C 66.1°F18.9°C 68% 4.5 mph NNW7.2 kmh NNW 6.0 mph9.7 kmh 29.93 in1013.5 mb 0.00 in0.0 mm 0.00 in/hr0.0 mm/hr 0.00 in0.0 mm
10:50 AM 78.5°F25.8°C 66.2°F19.0°C 66% 6.9 mph NW11.1 kmh NW 13.0 mph20.9 kmh 29.94 in1013.9 mb 0.00 in0.0 mm 0.00 in/hr0.0 mm/hr 0.00 in0.0 mm
11:00 AM 79.1°F26.2°C 66.3°F19.1°C 65% 7.0 mph NNW11.3 kmh NNW 13.0 mph20.9 kmh 29.94 in1013.9 mb 0.00 in0.0 mm 0.00 in/hr0.0 mm/hr 0.00 in0.0 mm
11:10 AM 78.5°F25.8°C 65.3°F18.5°C 64% 8.0 mph WNW12.9 kmh WNW 14.0 mph22.5 kmh 29.93 in1013.5 mb 0.00 in0.0 mm 0.00 in/hr0.0 mm/hr 0.00 in0.0 mm
11:20 AM 79.2°F26.2°C 66.4°F19.1°C 65% 5.7 mph NW9.2 kmh NW 8.0 mph12.9 kmh 29.93 in1013.5 mb 0.00 in0.0 mm 0.00 in/hr0.0 mm/hr 0.00 in0.0 mm
11:30 AM 79.9°F26.6°C 66.2°F19.0°C 63% 6.4 mph NNW10.3 kmh NNW 11.0 mph17.7 kmh 29.93 in1013.5 mb 0.00 in0.0 mm 0.00 in/hr0.0 mm/hr 0.00 in0.0 mm
11:40 AM 80.5°F26.9°C 66.8°F19.3°C 63% 4.2 mph N6.8 kmh N 7.0 mph11.3 kmh 29.93 in1013.5 mb 0.00 in0.0 mm 0.00 in/hr0.0 mm/hr 0.00 in0.0 mm
11:50 AM 80.8°F27.1°C 65.7°F18.7°C 60% 4.5 mph NNW7.2 kmh NNW 9.0 mph14.5 kmh 29.93 in1013.5 mb 0.00 in0.0 mm 0.00 in/hr0.0 mm/hr 0.00 in0.0 mm
12:00 PM 81.3°F27.4°C 66.1°F18.9°C 60% 5.2 mph N8.4 kmh N 14.0 mph22.5 kmh 29.93 in1013.5 mb 0.00 in0.0 mm 0.00 in/hr0.0 mm/hr 0.00 in0.0 mm
12:10 PM 81.1°F27.3°C 65.9°F18.8°C 60% 5.2 mph N8.4 kmh N 8.0 mph12.9 kmh 29.93 in1013.5 mb 0.00 in0.0 mm 0.00 in/hr0.0 mm/hr 0.00 in0.0 mm
12:20 PM 80.7°F27.1°C 66.0°F18.9°C 61% 8.3 mph N13.4 kmh N 11.0 mph17.7 kmh 29.93 in1013.5 mb 0.00 in0.0 mm 0.00 in/hr0.0 mm/hr 0.00 in0.0 mm
12:30 PM 81.1°F27.3°C 67.3°F19.6°C 63% 6.2 mph NW10.0 kmh NW 10.0 mph16.1 kmh 29.92 in1013.2 mb 0.00 in0.0 mm 0.00 in/hr0.0 mm/hr 0.00 in0.0 mm
12:40 PM 81.0°F27.2°C 67.2°F19.6°C 63% 7.2 mph N11.6 kmh N 11.0 mph17.7 kmh 29.92 in1013.2 mb 0.00 in0.0 mm 0.00 in/hr0.0 mm/hr 0.00 in0.0 mm
12:50 PM 80.9°F27.2°C 67.1°F19.5°C 63% 5.7 mph N9.2 kmh N 8.0 mph12.9 kmh 29.92 in1013.2 mb 0.00 in0.0 mm 0.00 in/hr0.0 mm/hr 0.00 in0.0 mm
01:00 PM 80.8°F27.1°C 67.9°F19.9°C 65% 6.5 mph NNE10.5 kmh NNE 9.0 mph14.5 kmh 29.92 in1013.2 mb 0.00 in0.0 mm 0.00 in/hr0.0 mm/hr 0.00 in0.0 mm
01:10 PM 81.6°F27.6°C 67.3°F19.6°C 62% 6.7 mph NW10.8 kmh NW 11.0 mph17.7 kmh 29.92 in1013.2 mb 0.00 in0.0 mm 0.00 in/hr0.0 mm/hr 0.00 in0.0 mm
01:20 PM 81.6°F27.6°C 67.3°F19.6°C 62% 8.1 mph N13.0 kmh N 16.0 mph25.7 kmh 29.92 in1013.2 mb 0.00 in0.0 mm 0.00 in/hr0.0 mm/hr 0.00 in0.0 mm
01:30 PM 81.8°F27.7°C 66.6°F19.2°C 60% 8.4 mph NW13.5 kmh NW 10.0 mph16.1 kmh 29.91 in1012.9 mb 0.00 in0.0 mm 0.00 in/hr0.0 mm/hr 0.00 in0.0 mm
01:40 PM 81.6°F27.6°C 66.4°F19.1°C 60% 9.0 mph N14.5 kmh N 12.0 mph19.3 kmh 29.91 in1012.9 mb 0.00 in0.0 mm 0.00 in/hr0.0 mm/hr 0.00 in0.0 mm
01:50 PM 82.3°F27.9°C 66.1°F18.9°C 58% 7.2 mph N11.6 kmh N 11.0 mph17.7 kmh 29.91 in1012.9 mb 0.00 in0.0 mm 0.00 in/hr0.0 mm/hr 0.00 in0.0 mm
02:00 PM 81.5°F27.5°C 66.3°F19.1°C 60% 7.6 mph NNW12.2 kmh NNW 13.0 mph20.9 kmh 29.90 in1012.5 mb 0.00 in0.0 mm 0.00 in/hr0.0 mm/hr 0.00 in0.0 mm
02:10 PM 82.3°F27.9°C 68.0°F20.0°C 62% 4.9 mph NE7.9 kmh NE 8.0 mph12.9 kmh 29.90 in1012.5 mb 0.00 in0.0 mm 0.00 in/hr0.0 mm/hr 0.00 in0.0 mm
02:20 PM 82.7°F28.2°C 67.4°F19.7°C 60% 6.5 mph NNW10.5 kmh NNW 15.0 mph24.1 kmh 29.90 in1012.5 mb 0.00 in0.0 mm 0.00 in/hr0.0 mm/hr 0.00 in0.0 mm
02:30 PM 81.8°F27.7°C 67.5°F19.7°C 62% 6.3 mph N10.1 kmh N 9.0 mph14.5 kmh 29.89 in1012.2 mb 0.00 in0.0 mm 0.00 in/hr0.0 mm/hr 0.00 in0.0 mm
02:40 PM 81.4°F27.4°C 67.2°F19.6°C 62% 5.8 mph N9.3 kmh N 11.0 mph17.7 kmh 29.89 in1012.2 mb 0.00 in0.0 mm 0.00 in/hr0.0 mm/hr 0.00 in0.0 mm
02:50 PM 80.3°F26.8°C 67.0°F19.4°C 64% 5.7 mph NNW9.2 kmh NNW 11.0 mph17.7 kmh 29.89 in1012.2 mb 0.00 in0.0 mm 0.00 in/hr0.0 mm/hr 0.00 in0.0 mm
03:00 PM 79.8°F26.6°C 65.6°F18.7°C 62% 7.2 mph NW11.6 kmh NW 11.0 mph17.7 kmh 29.89 in1012.2 mb 0.00 in0.0 mm 0.00 in/hr0.0 mm/hr 0.00 in0.0 mm
03:10 PM 80.3°F26.8°C 66.1°F18.9°C 62% 5.4 mph N8.7 kmh N 9.0 mph14.5 kmh 29.89 in1012.2 mb 0.00 in0.0 mm 0.00 in/hr0.0 mm/hr 0.00 in0.0 mm
03:20 PM 80.4°F26.9°C 66.6°F19.2°C 63% 5.1 mph N8.2 kmh N 8.0 mph12.9 kmh 29.89 in1012.2 mb 0.00 in0.0 mm 0.00 in/hr0.0 mm/hr 0.00 in0.0 mm
03:30 PM 80.0°F26.7°C 66.3°F19.1°C 63% 6.1 mph N9.8 kmh N 10.0 mph16.1 kmh 29.89 in1012.2 mb 0.00 in0.0 mm 0.00 in/hr0.0 mm/hr 0.00 in0.0 mm
03:40 PM 79.9°F26.6°C 66.2°F19.0°C 63% 6.5 mph N10.5 kmh N 10.0 mph16.1 kmh 29.89 in1012.2 mb 0.00 in0.0 mm 0.00 in/hr0.0 mm/hr 0.00 in0.0 mm
03:50 PM 79.3°F26.3°C 66.0°F18.9°C 64% 7.6 mph NW12.2 kmh NW 11.0 mph17.7 kmh 29.89 in1012.2 mb 0.00 in0.0 mm 0.00 in/hr0.0 mm/hr 0.00 in0.0 mm
04:00 PM 79.2°F26.2°C 66.4°F19.1°C 65% 8.1 mph N13.0 kmh N 12.0 mph19.3 kmh 29.89 in1012.2 mb 0.00 in0.0 mm 0.00 in/hr0.0 mm/hr 0.00 in0.0 mm
04:10 PM 78.8°F26.0°C 66.1°F18.9°C 65% 8.1 mph NNW13.0 kmh NNW 13.0 mph20.9 kmh 29.89 in1012.2 mb 0.00 in0.0 mm 0.00 in/hr0.0 mm/hr 0.00 in0.0 mm
04:20 PM 78.6°F25.9°C 66.3°F19.1°C 66% 6.3 mph NE10.1 kmh NE 10.0 mph16.1 kmh 29.89 in1012.2 mb 0.00 in0.0 mm 0.00 in/hr0.0 mm/hr 0.00 in0.0 mm
04:30 PM 78.7°F25.9°C 66.4°F19.1°C 66% 7.2 mph NE11.6 kmh NE 8.0 mph12.9 kmh 29.89 in1012.2 mb 0.00 in0.0 mm 0.00 in/hr0.0 mm/hr 0.00 in0.0 mm
04:40 PM 78.6°F25.9°C 67.2°F19.6°C 68% 6.4 mph N10.3 kmh N 12.0 mph19.3 kmh 29.89 in1012.2 mb 0.00 in0.0 mm 0.00 in/hr0.0 mm/hr 0.00 in0.0 mm
04:50 PM 78.2°F25.7°C 67.6°F19.8°C 70% 6.2 mph NW10.0 kmh NW 13.0 mph20.9 kmh 29.89 in1012.2 mb 0.00 in0.0 mm 0.00 in/hr0.0 mm/hr 0.00 in0.0 mm
05:00 PM 77.7°F25.4°C 66.8°F19.3°C 69% 9.3 mph NNE15.0 kmh NNE 13.0 mph20.9 kmh 29.89 in1012.2 mb 0.00 in0.0 mm 0.00 in/hr0.0 mm/hr 0.00 in0.0 mm
05:10 PM 77.8°F25.4°C 67.2°F19.6°C 70% 7.6 mph N12.2 kmh N 11.0 mph17.7 kmh 29.89 in1012.2 mb 0.00 in0.0 mm 0.00 in/hr0.0 mm/hr 0.00 in0.0 mm
05:20 PM 77.5°F25.3°C 66.9°F19.4°C 70% 6.4 mph NW10.3 kmh NW 8.0 mph12.9 kmh 29.90 in1012.5 mb 0.00 in0.0 mm 0.00 in/hr0.0 mm/hr 0.00 in0.0 mm
05:30 PM 77.3°F25.2°C 67.2°F19.6°C 71% 7.7 mph NW12.4 kmh NW 14.0 mph22.5 kmh 29.90 in1012.5 mb 0.00 in0.0 mm 0.00 in/hr0.0 mm/hr 0.00 in0.0 mm
05:40 PM 77.0°F25.0°C 66.9°F19.4°C 71% 9.8 mph WNW15.8 kmh WNW 15.0 mph24.1 kmh 29.89 in1012.2 mb 0.00 in0.0 mm 0.00 in/hr0.0 mm/hr 0.00 in0.0 mm
05:50 PM 76.6°F24.8°C 66.9°F19.4°C 72% 7.0 mph NNW11.3 kmh NNW 15.0 mph24.1 kmh 29.89 in1012.2 mb 0.00 in0.0 mm 0.00 in/hr0.0 mm/hr 0.00 in0.0 mm
06:00 PM 76.4°F24.7°C 66.7°F19.3°C 72% 6.0 mph NW9.7 kmh NW 9.0 mph14.5 kmh 29.90 in1012.5 mb 0.00 in0.0 mm 0.00 in/hr0.0 mm/hr 0.00 in0.0 mm
06:10 PM 76.1°F24.5°C 66.8°F19.3°C 73% 7.9 mph N12.7 kmh N 12.0 mph19.3 kmh 29.90 in1012.5 mb 0.00 in0.0 mm 0.00 in/hr0.0 mm/hr 0.00 in0.0 mm
06:20 PM 75.7°F24.3°C 66.5°F19.2°C 73% 6.2 mph NNW10.0 kmh NNW 12.0 mph19.3 kmh 29.90 in1012.5 mb 0.00 in0.0 mm 0.00 in/hr0.0 mm/hr 0.00 in0.0 mm
06:30 PM 75.3°F24.1°C 66.4°F19.1°C 74% 6.8 mph NW10.9 kmh NW 11.0 mph17.7 kmh 29.90 in1012.5 mb 0.00 in0.0 mm 0.00 in/hr0.0 mm/hr 0.00 in0.0 mm
06:40 PM 74.9°F23.8°C 66.1°F18.9°C 74% 4.8 mph N7.7 kmh N 6.0 mph9.7 kmh 29.90 in1012.5 mb 0.00 in0.0 mm 0.00 in/hr0.0 mm/hr 0.00 in0.0 mm
06:50 PM 74.5°F23.6°C 66.1°F18.9°C 75% 5.1 mph NW8.2 kmh NW 8.0 mph12.9 kmh 29.90 in1012.5 mb 0.00 in0.0 mm 0.00 in/hr0.0 mm/hr 0.00 in0.0 mm
07:00 PM 74.2°F23.4°C 65.8°F18.8°C 75% 6.3 mph N10.1 kmh N 8.0 mph12.9 kmh 29.91 in1012.9 mb 0.00 in0.0 mm 0.00 in/hr0.0 mm/hr 0.00 in0.0 mm
07:10 PM 74.0°F23.3°C 65.6°F18.7°C 75% 6.7 mph N10.8 kmh N 10.0 mph16.1 kmh 29.91 in1012.9 mb 0.00 in0.0 mm 0.00 in/hr0.0 mm/hr 0.00 in0.0 mm
07:20 PM 73.7°F23.2°C 65.7°F18.7°C 76% 7.0 mph NW11.3 kmh NW 13.0 mph20.9 kmh 29.91 in1012.9 mb 0.00 in0.0 mm 0.00 in/hr0.0 mm/hr 0.00 in0.0 mm
07:30 PM 73.5°F23.1°C 65.5°F18.6°C 76% 4.6 mph NW7.4 kmh NW 7.0 mph11.3 kmh 29.92 in1013.2 mb 0.00 in0.0 mm 0.00 in/hr0.0 mm/hr 0.00 in0.0 mm
07:40 PM 73.3°F22.9°C 65.3°F18.5°C 76% 6.3 mph NW10.1 kmh NW 8.0 mph12.9 kmh 29.92 in1013.2 mb 0.00 in0.0 mm 0.00 in/hr0.0 mm/hr 0.00 in0.0 mm
07:50 PM 73.3°F22.9°C 65.3°F18.5°C 76% 5.1 mph NNW8.2 kmh NNW 7.0 mph11.3 kmh 29.92 in1013.2 mb 0.00 in0.0 mm 0.00 in/hr0.0 mm/hr 0.00 in0.0 mm
08:00 PM 73.2°F22.9°C 65.2°F18.4°C 76% 5.0 mph NNW8.0 kmh NNW 6.0 mph9.7 kmh 29.92 in1013.2 mb 0.00 in0.0 mm 0.00 in/hr0.0 mm/hr 0.00 in0.0 mm
08:10 PM 73.2°F22.9°C 65.1°F18.4°C 76% 5.3 mph NW8.5 kmh NW 9.0 mph14.5 kmh 29.93 in1013.5 mb 0.00 in0.0 mm 0.00 in/hr0.0 mm/hr 0.00 in0.0 mm
08:20 PM 73.1°F22.8°C 65.5°F18.6°C 77% 5.3 mph NNW8.5 kmh NNW 6.0 mph9.7 kmh 29.93 in1013.5 mb 0.00 in0.0 mm 0.00 in/hr0.0 mm/hr 0.00 in0.0 mm
08:30 PM 72.9°F22.7°C 65.6°F18.7°C 78% 4.5 mph N7.2 kmh N 7.0 mph11.3 kmh 29.93 in1013.5 mb 0.00 in0.0 mm 0.00 in/hr0.0 mm/hr 0.00 in0.0 mm
08:40 PM 72.8°F22.7°C 65.5°F18.6°C 78% 3.0 mph NNW4.8 kmh NNW 5.0 mph8.0 kmh 29.93 in1013.5 mb 0.00 in0.0 mm 0.00 in/hr0.0 mm/hr 0.00 in0.0 mm
08:50 PM 72.6°F22.6°C 65.3°F18.5°C 78% 4.5 mph NW7.2 kmh NW 7.0 mph11.3 kmh 29.93 in1013.5 mb 0.00 in0.0 mm 0.00 in/hr0.0 mm/hr 0.00 in0.0 mm
09:00 PM 72.5°F22.5°C 65.2°F18.4°C 78% 4.1 mph NW6.6 kmh NW 6.0 mph9.7 kmh 29.93 in1013.5 mb 0.00 in0.0 mm 0.00 in/hr0.0 mm/hr 0.00 in0.0 mm
09:10 PM 72.3°F22.4°C 65.1°F18.4°C 78% 3.6 mph NW5.8 kmh NW 5.0 mph8.0 kmh 29.93 in1013.5 mb 0.00 in0.0 mm 0.00 in/hr0.0 mm/hr 0.00 in0.0 mm
09:20 PM 72.1°F22.3°C 65.2°F18.4°C 79% 3.3 mph NW5.3 kmh NW 5.0 mph8.0 kmh 29.93 in1013.5 mb 0.00 in0.0 mm 0.00 in/hr0.0 mm/hr 0.00 in0.0 mm
09:30 PM 71.8°F22.1°C 64.9°F18.3°C 79% 2.8 mph NW4.5 kmh NW 4.0 mph6.4 kmh 29.93 in1013.5 mb 0.00 in0.0 mm 0.00 in/hr0.0 mm/hr 0.00 in0.0 mm
09:40 PM 71.6°F22.0°C 64.7°F18.2°C 79% 3.8 mph NW6.1 kmh NW 5.0 mph8.0 kmh 29.93 in1013.5 mb 0.00 in0.0 mm 0.00 in/hr0.0 mm/hr 0.00 in0.0 mm
09:50 PM 71.5°F21.9°C 64.6°F18.1°C 79% 4.2 mph NW6.8 kmh NW 6.0 mph9.7 kmh 29.94 in1013.9 mb 0.00 in0.0 mm 0.00 in/hr0.0 mm/hr 0.00 in0.0 mm
10:00 PM 71.5°F21.9°C 64.6°F18.1°C 79% 3.0 mph NW4.8 kmh NW 5.0 mph8.0 kmh 29.94 in1013.9 mb 0.00 in0.0 mm 0.00 in/hr0.0 mm/hr 0.00 in0.0 mm
10:10 PM 71.4°F21.9°C 64.2°F17.9°C 78% 2.5 mph NW4.0 kmh NW 4.0 mph6.4 kmh 29.94 in1013.9 mb 0.00 in0.0 mm 0.00 in/hr0.0 mm/hr 0.00 in0.0 mm
10:20 PM 71.4°F21.9°C 64.5°F18.1°C 79% Calm Calm -- 29.94 in1013.9 mb 0.00 in0.0 mm 0.00 in/hr0.0 mm/hr 0.00 in0.0 mm
10:30 PM 71.0°F21.7°C 64.2°F17.9°C 79% Calm Calm -- 29.94 in1013.9 mb 0.00 in0.0 mm 0.00 in/hr0.0 mm/hr 0.00 in0.0 mm
10:40 PM 70.6°F21.4°C 64.1°F17.8°C 80% Calm Calm -- 29.94 in1013.9 mb 0.00 in0.0 mm 0.00 in/hr0.0 mm/hr 0.00 in0.0 mm
10:50 PM 70.1°F21.2°C 63.7°F17.6°C 80% Calm Calm -- 29.94 in1013.9 mb 0.00 in0.0 mm 0.00 in/hr0.0 mm/hr 0.00 in0.0 mm
11:00 PM 69.7°F20.9°C 63.6°F17.6°C 81% Calm Calm -- 29.94 in1013.9 mb 0.00 in0.0 mm 0.00 in/hr0.0 mm/hr 0.00 in0.0 mm
11:10 PM 69.3°F20.7°C 63.5°F17.5°C 82% 0.3 mph NW0.5 kmh NW -- 29.94 in1013.9 mb 0.00 in0.0 mm 0.00 in/hr0.0 mm/hr 0.00 in0.0 mm
11:20 PM 69.0°F20.6°C 63.6°F17.6°C 83% 1.4 mph NW2.3 kmh NW 4.0 mph6.4 kmh 29.94 in1013.9 mb 0.00 in0.0 mm 0.00 in/hr0.0 mm/hr 0.00 in0.0 mm
11:30 PM 68.9°F20.5°C 63.9°F17.7°C 84% 0.9 mph NW1.4 kmh NW 2.0 mph3.2 kmh 29.93 in1013.5 mb 0.00 in0.0 mm 0.00 in/hr0.0 mm/hr 0.00 in0.0 mm
11:40 PM 69.2°F20.7°C 64.2°F17.9°C 84% 3.2 mph NW5.1 kmh NW 5.0 mph8.0 kmh 29.93 in1013.5 mb 0.00 in0.0 mm 0.00 in/hr0.0 mm/hr 0.00 in0.0 mm
11:50 PM 69.4°F20.8°C 64.0°F17.8°C 83% Calm Calm -- 29.93 in1013.5 mb 0.00 in0.0 mm 0.00 in/hr0.0 mm/hr 0.00 in0.0 mm